Airport View

Enter AWOS ICAO identifier for current METAR.

ex. KFNL

KSEA 261853Z 25003KT 8SM SCT008 OVC013 08/06 A3053 RMK AO2 SLP348 T00780056

26 Feb 2020 19:20

Phone: 206-214-2592

Other Area AWOS: KRNT - KBFI - KTIW - KPWT

TAF KSEA 261720Z 2618/2724 20003KT P6SM FEW005 SCT009 OVC020 TEMPO 2618/2620 5SM BR BKN009 FM262000 23005KT P6SM BKN020 FM270100 18003KT P6SM SCT025 OVC050 FM270800 18004KT P6SM BKN020 OVC040